createdAt,value
2019-02-28T00:01:28.760Z,640.43
2019-02-28T00:06:33.792Z,626.97
2019-02-28T00:11:39.506Z,640.23
2019-02-28T00:16:45.537Z,653.87
2019-02-28T00:21:50.625Z,718.17
2019-02-28T00:26:55.683Z,706.97
2019-02-28T00:32:00.701Z,714.73
2019-02-28T00:37:05.736Z,710.03
2019-02-28T00:42:10.795Z,672.77
2019-02-28T00:47:16.509Z,639.40
2019-02-28T00:52:22.249Z,615.67
2019-02-28T00:57:27.370Z,576.43
2019-02-28T01:02:32.400Z,539.73
2019-02-28T01:07:37.643Z,583.37
2019-02-28T01:12:42.697Z,541.70
2019-02-28T01:17:47.888Z,525.67
2019-02-28T01:22:52.913Z,483.40
2019-02-28T01:27:58.031Z,511.50
2019-02-28T01:33:03.063Z,535.60
2019-02-28T01:38:09.878Z,466.17
2019-02-28T01:43:14.933Z,383.47
2019-02-28T01:48:22.586Z,395.33
2019-02-28T01:53:26.635Z,365.93
2019-02-28T01:58:31.672Z,412.13
2019-02-28T02:03:36.713Z,374.50
2019-02-28T02:08:41.782Z,400.83
2019-02-28T02:13:46.891Z,424.70
2019-02-28T02:18:52.204Z,398.27
2019-02-28T02:23:57.219Z,282.33
2019-02-28T02:29:02.314Z,280.23
2019-02-28T02:34:07.340Z,396.63
2019-02-28T02:39:16.364Z,552.03
2019-02-28T02:44:19.161Z,582.70
2019-02-28T02:49:25.297Z,513.63
2019-02-28T02:54:30.358Z,521.50
2019-02-28T02:59:39.096Z,491.27
2019-02-28T03:04:42.401Z,541.33
2019-02-28T03:09:47.706Z,570.60
2019-02-28T03:14:52.761Z,593.47
2019-02-28T03:19:58.056Z,570.57
2019-02-28T03:25:03.305Z,509.50
2019-02-28T03:30:10.794Z,504.50
2019-02-28T03:35:15.866Z,380.23
2019-02-28T03:40:20.974Z,441.93
2019-02-28T03:45:33.821Z,548.37
2019-02-28T03:50:32.649Z,541.27
2019-02-28T03:55:40.875Z,520.07
2019-02-28T04:00:45.553Z,515.57
2019-02-28T04:05:50.569Z,441.00
2019-02-28T04:10:55.921Z,423.63
2019-02-28T04:16:08.690Z,449.57
2019-02-28T04:21:10.315Z,443.10
2019-02-28T04:26:14.571Z,427.27
2019-02-28T04:31:20.358Z,413.97
2019-02-28T04:36:26.038Z,447.20
2019-02-28T04:41:32.963Z,525.17
2019-02-28T04:46:37.716Z,491.87
2019-02-28T04:51:42.804Z,509.77
2019-02-28T04:56:50.701Z,499.07
2019-02-28T05:01:55.660Z,448.57
2019-02-28T05:07:00.715Z,419.93
2019-02-28T05:12:06.023Z,357.37
2019-02-28T05:17:11.301Z,380.50
2019-02-28T05:22:16.346Z,326.33
2019-02-28T05:27:21.399Z,462.53
2019-02-28T05:32:26.432Z,555.23
2019-02-28T05:37:31.449Z,576.10
2019-02-28T05:42:38.400Z,435.50
2019-02-28T05:47:46.927Z,535.57
2019-02-28T05:52:50.134Z,529.47
2019-02-28T05:57:55.300Z,540.53
2019-02-28T06:03:02.519Z,551.97
2019-02-28T06:08:07.109Z,598.10
2019-02-28T06:13:12.141Z,616.67
2019-02-28T06:18:17.205Z,608.17
2019-02-28T06:23:22.247Z,569.60
2019-02-28T06:28:27.616Z,585.57
2019-02-28T06:33:34.450Z,607.80
2019-02-28T06:38:39.795Z,592.10
2019-02-28T06:43:44.971Z,639.03
2019-02-28T06:48:50.133Z,672.23
2019-02-28T06:53:55.385Z,679.40
2019-02-28T06:59:00.592Z,675.43
2019-02-28T07:04:05.621Z,701.10
2019-02-28T07:09:10.853Z,715.80
2019-02-28T07:14:15.902Z,715.30
2019-02-28T07:19:21.271Z,699.97
2019-02-28T07:24:26.631Z,664.37
2019-02-28T07:29:32.147Z,702.97
2019-02-28T07:34:37.293Z,725.27
2019-02-28T07:39:42.528Z,752.23
2019-02-28T07:44:49.347Z,762.43
2019-02-28T07:49:54.478Z,743.20
2019-02-28T07:54:59.508Z,744.50
2019-02-28T08:00:05.877Z,764.93
2019-02-28T08:05:11.542Z,750.00
2019-02-28T08:10:18.500Z,786.23
2019-02-28T08:15:23.588Z,834.70
2019-02-28T08:20:30.654Z,826.20
2019-02-28T08:25:35.338Z,830.17
2019-02-28T08:30:40.385Z,844.17
2019-02-28T08:35:45.454Z,831.60
2019-02-28T08:40:51.605Z,768.87
2019-02-28T08:45:56.888Z,795.70
2019-02-28T08:51:02.039Z,738.93
2019-02-28T08:56:07.118Z,682.17
2019-02-28T09:01:12.120Z,725.50
2019-02-28T09:06:17.224Z,723.43
2019-02-28T09:11:22.250Z,730.57
2019-02-28T09:16:27.275Z,745.63
2019-02-28T09:21:32.357Z,743.03
2019-02-28T09:26:39.236Z,753.07
2019-02-28T09:31:44.288Z,768.13
2019-02-28T09:36:52.403Z,764.97
2019-02-28T09:41:56.070Z,681.70
2019-02-28T09:47:01.337Z,691.53
2019-02-28T09:52:07.283Z,690.23
2019-02-28T09:57:15.417Z,695.83
2019-02-28T10:02:19.248Z,706.07
2019-02-28T10:07:27.123Z,723.10
2019-02-28T10:12:31.520Z,781.23
2019-02-28T10:17:36.581Z,817.80
2019-02-28T10:22:44.389Z,878.13
2019-02-28T10:27:48.304Z,920.97
2019-02-28T10:32:53.450Z,862.93
2019-02-28T10:37:58.937Z,841.50
2019-02-28T10:43:04.213Z,867.80
2019-02-28T10:48:09.244Z,842.10
2019-02-28T10:53:14.408Z,905.00
2019-02-28T10:58:19.411Z,910.37
2019-02-28T11:03:24.489Z,820.67
2019-02-28T11:08:29.568Z,762.77
2019-02-28T11:13:34.758Z,762.10
2019-02-28T11:18:41.908Z,704.93
2019-02-28T11:23:50.064Z,746.77
2019-02-28T11:28:55.239Z,798.00
2019-02-28T11:34:01.969Z,762.83
2019-02-28T11:39:07.796Z,762.13
2019-02-28T11:44:14.826Z,841.50
2019-02-28T11:49:19.564Z,900.57
2019-02-28T11:54:24.591Z,889.17
2019-02-28T11:59:29.621Z,883.00
2019-02-28T12:04:37.403Z,885.23
2019-02-28T12:09:41.448Z,883.43
2019-02-28T12:14:47.588Z,888.60
2019-02-28T12:19:52.674Z,874.27
2019-02-28T12:24:57.735Z,860.37
2019-02-28T12:30:02.771Z,870.47
2019-02-28T12:35:08.305Z,862.70
2019-02-28T12:40:15.953Z,869.93
2019-02-28T12:45:26.987Z,866.43
2019-02-28T12:50:32.023Z,865.50
2019-02-28T12:55:38.902Z,860.70
2019-02-28T13:00:44.000Z,861.97
2019-02-28T13:05:49.579Z,869.43
2019-02-28T13:10:54.800Z,835.60
2019-02-28T13:15:59.874Z,842.13
2019-02-28T13:21:06.139Z,826.97
2019-02-28T13:26:12.131Z,809.47
2019-02-28T13:31:17.365Z,791.07
2019-02-28T13:36:22.854Z,816.83
2019-02-28T13:41:28.003Z,797.40
2019-02-28T13:46:34.380Z,808.47
2019-02-28T13:51:42.064Z,802.70
2019-02-28T13:56:46.209Z,772.53
2019-02-28T14:01:52.123Z,703.27
2019-02-28T14:06:58.084Z,723.13
2019-02-28T14:12:03.625Z,755.23
2019-02-28T14:17:08.820Z,728.30
2019-02-28T14:22:14.043Z,723.80
2019-02-28T14:27:21.652Z,712.07
2019-02-28T14:32:26.119Z,722.67
2019-02-28T14:37:31.480Z,751.07
2019-02-28T14:42:36.693Z,775.13
2019-02-28T14:47:41.893Z,747.80
2019-02-28T14:52:46.948Z,721.87
2019-02-28T14:57:52.078Z,734.60
2019-02-28T15:02:59.390Z,738.23
2019-02-28T15:08:04.580Z,734.37
2019-02-28T15:13:09.865Z,748.60
2019-02-28T15:18:14.977Z,801.10
2019-02-28T15:23:20.110Z,778.57
2019-02-28T15:28:25.167Z,803.83
2019-02-28T15:33:30.672Z,774.50
2019-02-28T15:38:36.737Z,788.73
2019-02-28T15:43:41.787Z,763.43
2019-02-28T15:48:47.154Z,796.13
2019-02-28T15:53:52.381Z,786.63
2019-02-28T15:58:57.459Z,804.30
2019-02-28T16:04:02.614Z,815.77
2019-02-28T16:09:11.438Z,822.90
2019-02-28T16:14:16.714Z,844.70
2019-02-28T16:19:22.794Z,842.87
2019-02-28T16:24:27.896Z,838.13
2019-02-28T16:29:33.106Z,844.33
2019-02-28T16:34:38.759Z,844.40
2019-02-28T16:39:45.055Z,855.53
2019-02-28T16:44:50.108Z,863.77
2019-02-28T16:49:55.337Z,858.80
2019-02-28T16:55:02.798Z,875.80
2019-02-28T17:00:08.632Z,865.50
2019-02-28T17:05:16.011Z,869.90
2019-02-28T17:10:25.164Z,881.13
2019-02-28T17:15:55.413Z,867.50
2019-02-28T17:20:59.584Z,848.93
2019-02-28T17:26:04.613Z,846.13
2019-02-28T17:31:27.173Z,847.13
2019-02-28T17:36:32.533Z,860.07
2019-02-28T17:41:37.954Z,850.10
2019-02-28T17:46:43.590Z,864.73
2019-02-28T17:51:59.487Z,869.10
2019-02-28T17:57:18.367Z,857.63
2019-02-28T18:03:06.516Z,853.70
2019-02-28T18:08:37.579Z,864.90
2019-02-28T18:14:03.391Z,852.53
2019-02-28T18:19:41.041Z,850.63
2019-02-28T18:25:33.187Z,860.67
2019-02-28T18:31:10.659Z,856.90
2019-02-28T18:36:18.553Z,852.00
2019-02-28T18:41:23.915Z,869.93
2019-02-28T18:46:30.779Z,864.07
2019-02-28T18:51:35.562Z,844.53
2019-02-28T18:56:40.611Z,865.37
2019-02-28T19:01:45.659Z,858.17
2019-02-28T19:06:51.024Z,828.00
2019-02-28T19:11:59.728Z,918.53
2019-02-28T19:17:05.434Z,979.37
2019-02-28T19:22:12.305Z,924.40
2019-02-28T19:27:21.317Z,926.67
2019-02-28T19:32:26.631Z,973.10
2019-02-28T19:37:31.970Z,976.80
2019-02-28T19:42:37.023Z,988.00
2019-02-28T19:47:43.094Z,976.03
2019-02-28T19:52:48.182Z,963.30
2019-02-28T19:57:53.201Z,943.53
2019-02-28T20:02:58.272Z,945.77
2019-02-28T20:08:03.522Z,915.20
2019-02-28T20:13:08.552Z,917.77
2019-02-28T20:18:13.730Z,910.37
2019-02-28T20:23:19.014Z,893.50
2019-02-28T20:28:24.075Z,879.00
2019-02-28T20:33:29.198Z,908.07
2019-02-28T20:38:34.277Z,876.13
2019-02-28T20:43:39.335Z,916.93
2019-02-28T20:48:44.692Z,960.00
2019-02-28T20:53:49.685Z,946.27
2019-02-28T20:58:54.800Z,942.63
2019-02-28T21:04:00.158Z,922.13
2019-02-28T21:09:07.819Z,926.40
2019-02-28T21:14:12.905Z,905.57
2019-02-28T21:19:18.190Z,884.33
2019-02-28T21:24:23.445Z,877.97
2019-02-28T21:29:28.677Z,865.47
2019-02-28T21:34:34.176Z,863.00
2019-02-28T21:39:41.458Z,892.87
2019-02-28T21:44:47.591Z,899.03
2019-02-28T21:49:52.993Z,875.23
2019-02-28T21:54:58.033Z,888.50
2019-02-28T22:00:03.094Z,874.23
2019-02-28T22:05:11.494Z,861.87
2019-02-28T22:10:16.919Z,884.30
2019-02-28T22:15:22.276Z,869.23
2019-02-28T22:20:27.636Z,857.90
2019-02-28T22:25:32.694Z,853.17
2019-02-28T22:31:02.889Z,850.07
2019-02-28T22:36:10.010Z,843.73
2019-02-28T22:41:15.192Z,858.57
2019-02-28T22:46:20.246Z,864.30
2019-02-28T22:51:25.300Z,866.27
2019-02-28T22:56:31.311Z,868.53
2019-02-28T23:01:38.454Z,854.33
2019-02-28T23:06:43.841Z,846.53
2019-02-28T23:11:49.203Z,836.93
2019-02-28T23:16:54.254Z,838.27
2019-02-28T23:21:59.493Z,853.73
2019-02-28T23:27:20.752Z,837.90
2019-02-28T23:32:38.196Z,843.40
2019-02-28T23:37:43.935Z,848.60
2019-02-28T23:42:50.840Z,843.70
2019-02-28T23:47:56.216Z,849.67
2019-02-28T23:53:01.274Z,847.87
2019-02-28T23:58:07.412Z,861.73
